Supai, Arizona
Current Conditions -  °F | °C
As of 4:54 PM on Sunday 23 Nov 2014 (Local Time) from KGCN Reporting Station
Clear Clear  
Wind Chill: 35°   Ceiling: Unl
Heat Index: 39°   Visibility: 10mi
Dew Point: -11°   Wind: 6mph
Humidity: 12%   Direction: NA
Pressure: 30.16"   Gusts: NA
Location:  36.22°N, 112.69°W
Report Text: KGCN 232354Z VRB05KT 10SM CLR 04/M24 A3016 RMK AO2 SLP194 T00391239 10067 20039 53004
Loading
Personal Weather Stations






























Interactive Weather Map New forecast layout! Learn more

10-Day Weather Forecast

Advertisements
Track Severe Weather on mobile